createdAt,value
2023-03-06T00:00:28.740Z,50.0
2023-03-06T00:02:24.587Z,34.5
2023-03-06T00:04:24.222Z,27.9
2023-03-06T00:06:23.882Z,34.4
2023-03-06T00:08:24.033Z,23.5
2023-03-06T00:10:25.688Z,29.0
2023-03-06T00:12:22.435Z,42.0
2023-03-06T00:14:21.838Z,35.0
2023-03-06T00:16:22.185Z,29.3
2023-03-06T00:18:20.951Z,39.1
2023-03-06T00:20:21.349Z,22.0
2023-03-06T00:22:20.839Z,21.0
2023-03-06T00:24:19.750Z,20.7
2023-03-06T00:26:19.276Z,20.6
2023-03-06T00:28:18.727Z,20.0
2023-03-06T00:30:20.732Z,20.3
2023-03-06T00:32:17.815Z,21.2
2023-03-06T00:34:17.708Z,20.2
2023-03-06T00:36:16.982Z,20.7
2023-03-06T00:38:16.415Z,20.5
2023-03-06T00:40:17.895Z,21.0
2023-03-06T00:42:16.472Z,20.7
2023-03-06T00:46:14.881Z,21.0
2023-03-06T00:48:14.064Z,20.6
2023-03-06T00:50:13.643Z,20.9
2023-03-06T00:52:13.529Z,21.1
2023-03-06T00:54:12.723Z,22.0
2023-03-06T00:56:12.428Z,21.2
2023-03-06T00:58:12.447Z,21.9
2023-03-06T01:00:11.830Z,22.3
2023-03-06T01:02:11.064Z,21.5
2023-03-06T01:04:11.078Z,22.3
2023-03-06T01:06:09.930Z,20.8
2023-03-06T01:08:09.564Z,19.8
2023-03-06T01:10:10.715Z,21.1
2023-03-06T01:12:09.134Z,21.7
2023-03-06T01:14:08.276Z,21.9
2023-03-06T01:16:09.780Z,22.2
2023-03-06T01:18:07.197Z,21.8
2023-03-06T01:20:09.640Z,21.9
2023-03-06T01:22:06.640Z,21.2
2023-03-06T01:24:06.277Z,22.3
2023-03-06T01:26:05.868Z,21.2
2023-03-06T01:28:04.862Z,21.1
2023-03-06T01:30:05.007Z,20.7
2023-03-06T01:32:04.334Z,21.9
2023-03-06T01:34:03.563Z,22.0
2023-03-06T01:36:03.919Z,21.0
2023-03-06T01:38:02.418Z,20.4
2023-03-06T01:40:02.732Z,20.5
2023-03-06T01:44:01.451Z,22.2
2023-03-06T01:46:20.022Z,20.4
2023-03-06T01:48:00.124Z,21.1
2023-03-06T01:50:02.806Z,22.2
2023-03-06T01:52:01.531Z,20.4
2023-03-06T01:54:02.080Z,21.3
2023-03-06T01:58:02.816Z,22.5
2023-03-06T02:00:03.096Z,20.6
2023-03-06T02:02:00.669Z,21.4
2023-03-06T02:03:56.974Z,20.9
2023-03-06T02:05:58.156Z,22.3
2023-03-06T02:07:56.735Z,22.0
2023-03-06T02:09:55.515Z,20.6
2023-03-06T02:11:54.543Z,21.0
2023-03-06T02:13:54.503Z,21.5
2023-03-06T02:15:54.186Z,21.1
2023-03-06T02:17:53.609Z,21.2
2023-03-06T02:20:01.961Z,21.0
2023-03-06T02:21:52.574Z,21.8
2023-03-06T02:24:07.689Z,22.2
2023-03-06T02:25:52.845Z,21.0
2023-03-06T02:27:51.032Z,22.3
2023-03-06T02:29:50.749Z,20.8
2023-03-06T02:31:50.187Z,21.2
2023-03-06T02:34:00.616Z,21.6
2023-03-06T02:35:52.287Z,20.9
2023-03-06T02:37:48.999Z,20.6
2023-03-06T02:39:53.910Z,23.0
2023-03-06T02:41:47.709Z,21.8
2023-03-06T02:45:50.017Z,21.0
2023-03-06T02:47:46.369Z,21.7
2023-03-06T02:49:46.085Z,22.2
2023-03-06T02:51:45.813Z,21.6
2023-03-06T02:53:45.095Z,22.3
2023-03-06T02:55:45.487Z,21.7
2023-03-06T02:57:44.425Z,22.4
2023-03-06T02:59:43.613Z,22.2
2023-03-06T03:01:43.354Z,21.7
2023-03-06T03:03:43.094Z,21.6
2023-03-06T03:05:42.402Z,21.7
2023-03-06T03:07:41.991Z,21.1
2023-03-06T03:09:41.609Z,21.5
2023-03-06T03:11:40.912Z,20.9
2023-03-06T03:13:40.412Z,21.6
2023-03-06T03:17:40.603Z,22.1
2023-03-06T03:19:39.192Z,20.8
2023-03-06T03:21:40.024Z,21.7
2023-03-06T03:23:38.533Z,21.2
2023-03-06T03:25:37.825Z,21.3
2023-03-06T03:27:37.250Z,21.4
2023-03-06T03:29:37.274Z,21.5
2023-03-06T03:31:36.376Z,21.7
2023-03-06T03:33:37.509Z,21.4
2023-03-06T03:35:36.306Z,21.3
2023-03-06T03:37:35.610Z,21.6
2023-03-06T03:39:34.543Z,22.3
2023-03-06T03:41:34.302Z,22.8
2023-03-06T03:43:33.530Z,21.7
2023-03-06T03:45:33.314Z,21.4
2023-03-06T03:49:32.278Z,20.9
2023-03-06T03:51:32.133Z,22.1
2023-03-06T03:53:31.424Z,21.6
2023-03-06T03:55:30.851Z,20.9
2023-03-06T03:57:30.560Z,21.8
2023-03-06T04:01:29.537Z,20.5
2023-03-06T04:03:28.926Z,21.5
2023-03-06T04:05:28.605Z,22.0
2023-03-06T04:07:28.013Z,22.2
2023-03-06T04:09:27.933Z,22.0
2023-03-06T04:11:27.181Z,22.5
2023-03-06T04:13:26.817Z,22.2
2023-03-06T04:15:26.163Z,22.1
2023-03-06T04:17:26.526Z,22.2
2023-03-06T04:21:25.076Z,23.1
2023-03-06T04:23:26.828Z,23.6
2023-03-06T04:25:23.940Z,23.0
2023-03-06T04:27:23.533Z,23.1
2023-03-06T04:29:23.104Z,24.2
2023-03-06T04:31:22.643Z,23.1
2023-03-06T04:33:22.397Z,23.9
2023-03-06T04:35:21.863Z,23.8
2023-03-06T04:37:23.134Z,23.3
2023-03-06T04:39:20.742Z,23.6
2023-03-06T04:41:20.392Z,24.5
2023-03-06T04:43:19.872Z,24.4
2023-03-06T04:45:19.750Z,24.0
2023-03-06T04:47:19.448Z,24.4
2023-03-06T04:49:18.554Z,24.2
2023-03-06T04:51:18.079Z,24.4
2023-03-06T04:53:18.614Z,22.9
2023-03-06T04:55:18.077Z,24.1
2023-03-06T04:57:17.134Z,23.7
2023-03-06T04:59:16.098Z,23.9
2023-03-06T05:01:15.815Z,25.2
2023-03-06T05:03:15.411Z,23.9
2023-03-06T05:05:16.537Z,24.5
2023-03-06T05:07:14.228Z,25.8
2023-03-06T05:09:14.059Z,24.6
2023-03-06T05:11:13.336Z,24.7
2023-03-06T05:13:12.900Z,25.2
2023-03-06T05:15:13.360Z,24.9
2023-03-06T05:17:12.282Z,25.2
2023-03-06T05:23:11.740Z,24.9
2023-03-06T05:25:10.852Z,25.1
2023-03-06T05:27:09.584Z,23.8
2023-03-06T05:29:09.197Z,23.9
2023-03-06T05:31:08.717Z,25.2
2023-03-06T05:33:08.100Z,26.0
2023-03-06T05:35:15.776Z,25.6
2023-03-06T05:37:07.655Z,25.3
2023-03-06T05:39:06.913Z,24.9
2023-03-06T05:41:10.906Z,24.4
2023-03-06T05:43:06.322Z,24.0
2023-03-06T05:45:06.873Z,25.6
2023-03-06T05:47:05.231Z,24.2
2023-03-06T05:49:04.360Z,25.8
2023-03-06T05:51:04.570Z,24.8
2023-03-06T05:53:03.681Z,25.0
2023-03-06T05:55:03.413Z,24.3
2023-03-06T05:57:03.904Z,24.5
2023-03-06T05:59:02.332Z,24.8
2023-03-06T06:01:08.598Z,24.6
2023-03-06T06:03:01.201Z,24.8
2023-03-06T06:05:01.337Z,23.9
2023-03-06T06:07:00.511Z,24.7
2023-03-06T06:08:59.674Z,24.2
2023-03-06T06:12:59.114Z,24.0
2023-03-06T06:14:58.303Z,24.8
2023-03-06T06:16:58.027Z,23.8
2023-03-06T06:18:57.638Z,24.2
2023-03-06T06:20:56.757Z,23.9
2023-03-06T06:22:57.055Z,24.3
2023-03-06T06:24:56.303Z,23.5
2023-03-06T06:26:57.146Z,23.8
2023-03-06T06:28:55.012Z,23.4
2023-03-06T06:30:55.011Z,23.0
2023-03-06T06:32:54.059Z,22.7
2023-03-06T06:34:53.889Z,23.2
2023-03-06T06:36:53.852Z,24.6
2023-03-06T06:38:52.714Z,24.1
2023-03-06T06:41:26.833Z,23.7
2023-03-06T06:42:52.179Z,23.8
2023-03-06T06:44:51.355Z,23.4
2023-03-06T06:47:22.343Z,22.0
2023-03-06T06:48:53.747Z,23.4
2023-03-06T06:54:50.325Z,23.8
2023-03-06T06:56:48.310Z,22.8
2023-03-06T06:58:50.390Z,23.9
2023-03-06T07:00:47.576Z,23.7
2023-03-06T07:02:48.290Z,22.4
2023-03-06T07:05:02.010Z,22.8
2023-03-06T07:06:46.386Z,23.6
2023-03-06T07:10:45.008Z,24.1
2023-03-06T07:12:44.873Z,23.8
2023-03-06T07:14:43.898Z,23.0
2023-03-06T07:16:43.446Z,22.3
2023-03-06T07:18:43.252Z,23.3
2023-03-06T07:20:42.522Z,23.0
2023-03-06T07:22:50.992Z,22.7
2023-03-06T07:24:41.865Z,23.0
2023-03-06T07:26:45.351Z,23.9
2023-03-06T07:28:51.872Z,24.0
2023-03-06T07:30:41.164Z,23.5
2023-03-06T07:32:39.883Z,23.4
2023-03-06T07:36:39.665Z,23.7
2023-03-06T07:40:37.930Z,23.4
2023-03-06T07:42:37.577Z,23.3
2023-03-06T07:44:37.352Z,24.4
2023-03-06T07:46:36.452Z,24.1
2023-03-06T07:48:37.017Z,23.3
2023-03-06T07:50:35.526Z,23.6
2023-03-06T07:52:35.418Z,24.0
2023-03-06T07:54:34.791Z,24.6
2023-03-06T07:56:34.352Z,24.7
2023-03-06T07:58:34.536Z,24.3
2023-03-06T08:00:33.536Z,25.3
2023-03-06T08:02:32.751Z,23.1
2023-03-06T08:04:33.125Z,24.5
2023-03-06T08:06:32.508Z,25.3
2023-03-06T08:08:32.951Z,24.0
2023-03-06T08:10:31.089Z,25.1
2023-03-06T08:12:30.737Z,26.2
2023-03-06T08:14:30.028Z,26.0
2023-03-06T08:16:30.125Z,25.0
2023-03-06T08:18:29.314Z,25.9
2023-03-06T08:20:28.771Z,26.1
2023-03-06T08:22:28.265Z,25.6
2023-03-06T08:24:27.943Z,25.5
2023-03-06T08:26:29.465Z,25.4
2023-03-06T08:28:27.574Z,24.8
2023-03-06T08:30:26.445Z,26.6
2023-03-06T08:32:26.690Z,25.7
2023-03-06T08:34:26.047Z,25.9
2023-03-06T08:36:25.952Z,25.3
2023-03-06T08:38:24.541Z,24.8
2023-03-06T08:40:26.073Z,27.1
2023-03-06T08:42:23.922Z,25.4
2023-03-06T08:44:23.244Z,26.6
2023-03-06T08:46:25.093Z,25.1
2023-03-06T08:48:23.485Z,26.1
2023-03-06T08:50:21.884Z,26.2
2023-03-06T08:52:21.466Z,25.6
2023-03-06T08:54:21.220Z,25.8
2023-03-06T08:56:22.721Z,25.7
2023-03-06T08:58:20.243Z,25.0
2023-03-06T09:00:20.366Z,25.8
2023-03-06T09:02:19.238Z,25.1
2023-03-06T09:04:18.774Z,25.4
2023-03-06T09:06:18.845Z,25.1
2023-03-06T09:08:18.172Z,24.8
2023-03-06T09:10:19.697Z,25.2
2023-03-06T09:14:16.908Z,24.6
2023-03-06T09:16:16.515Z,24.3
2023-03-06T09:18:15.868Z,25.2
2023-03-06T09:20:17.351Z,23.8
2023-03-06T09:22:14.881Z,26.1
2023-03-06T09:24:14.599Z,25.0
2023-03-06T09:26:14.473Z,23.7
2023-03-06T09:28:13.566Z,24.4
2023-03-06T09:30:14.733Z,24.6
2023-03-06T09:32:12.915Z,25.2
2023-03-06T09:34:12.573Z,24.8
2023-03-06T09:36:14.788Z,24.6
2023-03-06T09:38:11.679Z,23.7
2023-03-06T09:40:15.945Z,23.9
2023-03-06T09:42:17.234Z,25.3
2023-03-06T09:44:14.759Z,23.9
2023-03-06T09:48:14.274Z,24.1
2023-03-06T09:50:23.476Z,22.7
2023-03-06T09:52:25.005Z,22.4
2023-03-06T09:54:12.299Z,22.2
2023-03-06T09:56:14.131Z,22.7
2023-03-06T09:58:15.199Z,23.2
2023-03-06T10:00:13.607Z,23.5
2023-03-06T10:02:14.108Z,23.2
2023-03-06T10:04:16.803Z,23.4
2023-03-06T10:06:14.953Z,23.0
2023-03-06T10:08:16.796Z,23.4
2023-03-06T10:10:06.266Z,23.8
2023-03-06T10:12:16.383Z,22.3
2023-03-06T10:14:14.744Z,21.8
2023-03-06T10:16:14.363Z,21.5
2023-03-06T10:18:04.299Z,21.7
2023-03-06T10:20:15.595Z,21.9
2023-03-06T10:22:06.310Z,22.0
2023-03-06T10:24:15.431Z,21.9
2023-03-06T10:26:10.099Z,21.3
2023-03-06T10:28:10.824Z,21.8
2023-03-06T10:30:20.043Z,22.3
2023-03-06T10:32:10.528Z,21.7
2023-03-06T10:34:14.947Z,22.6
2023-03-06T10:35:59.398Z,22.0
2023-03-06T10:38:09.144Z,20.3
2023-03-06T10:40:03.205Z,21.3
2023-03-06T10:41:58.083Z,20.6
2023-03-06T10:44:17.511Z,20.3
2023-03-06T10:45:57.608Z,20.2
2023-03-06T10:48:09.936Z,19.8
2023-03-06T10:49:58.863Z,19.6
2023-03-06T10:51:59.833Z,19.8
2023-03-06T10:53:58.018Z,21.2
2023-03-06T10:55:57.460Z,20.8
2023-03-06T10:59:56.852Z,21.8
2023-03-06T11:01:56.004Z,20.6
2023-03-06T11:05:59.249Z,19.0
2023-03-06T11:07:55.712Z,20.4
2023-03-06T11:10:02.978Z,21.3
2023-03-06T11:12:11.785Z,19.8
2023-03-06T11:13:56.801Z,20.8
2023-03-06T11:15:56.495Z,21.1
2023-03-06T11:17:54.634Z,20.9
2023-03-06T11:19:50.443Z,20.5
2023-03-06T11:22:01.792Z,19.8
2023-03-06T11:23:51.026Z,20.4
2023-03-06T11:25:55.408Z,19.6
2023-03-06T11:27:55.722Z,20.5
2023-03-06T11:29:50.407Z,21.3
2023-03-06T11:31:53.511Z,20.6
2023-03-06T11:33:53.437Z,19.9
2023-03-06T11:35:53.557Z,19.2
2023-03-06T11:37:52.908Z,19.8
2023-03-06T11:39:55.031Z,19.5
2023-03-06T11:41:55.713Z,18.0
2023-03-06T11:43:54.032Z,19.1
2023-03-06T11:45:51.389Z,18.9
2023-03-06T11:47:51.824Z,17.5
2023-03-06T11:49:49.803Z,17.6
2023-03-06T11:51:50.531Z,18.2
2023-03-06T11:53:43.976Z,16.8
2023-03-06T11:55:50.760Z,17.1
2023-03-06T11:57:51.769Z,17.3
2023-03-06T12:00:02.406Z,17.7
2023-03-06T12:01:49.819Z,18.5
2023-03-06T12:03:58.186Z,17.1
2023-03-06T12:05:45.741Z,16.7
2023-03-06T12:07:48.578Z,18.0
2023-03-06T12:09:45.820Z,16.8
2023-03-06T12:11:47.855Z,17.2
2023-03-06T12:13:56.321Z,17.9
2023-03-06T12:15:52.979Z,18.1
2023-03-06T12:17:54.615Z,16.4
2023-03-06T12:19:51.201Z,16.2
2023-03-06T12:21:48.764Z,15.7
2023-03-06T12:23:53.298Z,15.5
2023-03-06T12:25:40.889Z,16.8
2023-03-06T12:27:47.735Z,15.0
2023-03-06T12:29:51.834Z,15.7
2023-03-06T12:31:48.816Z,15.2
2023-03-06T12:33:44.272Z,15.9
2023-03-06T12:35:52.891Z,16.7
2023-03-06T12:37:48.435Z,15.8
2023-03-06T12:41:45.617Z,17.3
2023-03-06T12:43:50.958Z,16.8
2023-03-06T12:45:35.991Z,16.9
2023-03-06T12:47:40.392Z,18.0
2023-03-06T12:49:37.751Z,18.2
2023-03-06T12:51:33.600Z,19.0
2023-03-06T12:53:34.446Z,19.4
2023-03-06T12:55:39.654Z,19.6
2023-03-06T12:57:32.007Z,17.7
2023-03-06T12:59:38.004Z,18.2
2023-03-06T13:01:49.694Z,18.8
2023-03-06T13:03:38.294Z,18.0
2023-03-06T13:05:41.813Z,18.1
2023-03-06T13:07:51.739Z,18.3
2023-03-06T13:09:37.539Z,17.9
2023-03-06T13:11:48.878Z,15.7
2023-03-06T13:13:31.656Z,15.6
2023-03-06T13:15:40.038Z,14.5
2023-03-06T13:17:35.099Z,15.2
2023-03-06T13:19:27.957Z,16.4
2023-03-06T13:21:45.863Z,16.7
2023-03-06T13:23:46.607Z,16.3
2023-03-06T13:25:42.186Z,16.2
2023-03-06T13:27:45.982Z,17.2
2023-03-06T13:29:45.412Z,17.1
2023-03-06T13:31:28.210Z,16.6
2023-03-06T13:33:44.614Z,17.5
2023-03-06T13:35:44.322Z,17.4
2023-03-06T13:37:36.234Z,16.9
2023-03-06T13:39:23.882Z,17.2
2023-03-06T13:41:32.749Z,16.2
2023-03-06T13:43:24.107Z,15.5
2023-03-06T13:45:24.804Z,15.0
2023-03-06T13:47:31.211Z,15.2
2023-03-06T13:49:23.850Z,15.8
2023-03-06T13:51:24.976Z,15.6
2023-03-06T13:53:39.672Z,16.4
2023-03-06T13:57:35.814Z,16.2
2023-03-06T13:59:36.376Z,16.6
2023-03-06T14:01:32.641Z,17.4
2023-03-06T14:03:38.783Z,16.3
2023-03-06T14:05:19.438Z,17.8
2023-03-06T14:07:23.170Z,17.6
2023-03-06T14:09:26.123Z,18.5
2023-03-06T14:11:19.794Z,19.4
2023-03-06T14:13:21.885Z,18.7
2023-03-06T14:15:19.661Z,18.4
2023-03-06T14:17:23.207Z,18.0
2023-03-06T14:19:17.759Z,17.9
2023-03-06T14:23:22.575Z,17.3
2023-03-06T14:25:19.231Z,17.7
2023-03-06T14:27:16.675Z,18.2
2023-03-06T14:29:20.585Z,18.8
2023-03-06T14:31:17.889Z,18.5
2023-03-06T14:33:26.644Z,18.1
2023-03-06T14:35:19.745Z,18.9
2023-03-06T14:37:19.704Z,18.1
2023-03-06T14:39:14.436Z,19.4
2023-03-06T14:43:18.127Z,20.3
2023-03-06T14:45:16.052Z,16.9
2023-03-06T14:47:21.018Z,15.8
2023-03-06T14:49:12.324Z,16.3
2023-03-06T14:51:15.172Z,17.2
2023-03-06T14:53:15.997Z,18.1
2023-03-06T14:55:10.525Z,18.3
2023-03-06T14:57:13.566Z,18.0
2023-03-06T14:59:12.630Z,17.4
2023-03-06T15:01:10.043Z,17.3
2023-03-06T15:03:14.380Z,16.8
2023-03-06T15:05:19.573Z,16.6
2023-03-06T15:07:10.282Z,16.9
2023-03-06T15:09:14.195Z,17.7
2023-03-06T15:11:06.397Z,16.9
2023-03-06T15:13:08.492Z,17.7
2023-03-06T15:15:24.871Z,17.2
2023-03-06T15:17:20.756Z,17.6
2023-03-06T15:19:05.250Z,17.3
2023-03-06T15:21:08.347Z,16.5
2023-03-06T15:23:14.857Z,16.3
2023-03-06T15:25:17.769Z,17.0
2023-03-06T15:27:05.306Z,16.0
2023-03-06T15:29:19.363Z,16.8
2023-03-06T15:31:16.438Z,16.5
2023-03-06T15:35:21.069Z,17.1
2023-03-06T15:37:20.662Z,16.7
2023-03-06T15:39:00.924Z,16.1
2023-03-06T15:41:01.826Z,16.4
2023-03-06T15:43:00.391Z,17.3
2023-03-06T15:45:11.190Z,16.6
2023-03-06T15:47:08.530Z,17.6
2023-03-06T15:49:02.861Z,17.0
2023-03-06T15:50:58.457Z,17.3
2023-03-06T15:52:58.085Z,17.0
2023-03-06T15:54:57.644Z,17.1
2023-03-06T15:56:57.036Z,17.5
2023-03-06T15:58:57.581Z,17.6
2023-03-06T16:00:56.410Z,17.8
2023-03-06T16:04:55.916Z,16.5
2023-03-06T16:06:55.320Z,16.0
2023-03-06T16:08:54.739Z,16.8
2023-03-06T16:10:54.419Z,15.6
2023-03-06T16:12:56.821Z,15.3
2023-03-06T16:15:01.134Z,16.3
2023-03-06T16:16:53.998Z,15.4
2023-03-06T16:18:52.946Z,14.7
2023-03-06T16:20:52.597Z,13.7
2023-03-06T16:22:52.795Z,13.6
2023-03-06T16:24:51.752Z,14.8
2023-03-06T16:26:53.884Z,13.7
2023-03-06T16:28:51.082Z,13.9
2023-03-06T16:30:50.671Z,13.7
2023-03-06T16:32:50.079Z,13.0
2023-03-06T16:34:49.662Z,13.3
2023-03-06T16:36:49.661Z,13.4
2023-03-06T16:38:49.547Z,13.3
2023-03-06T16:40:48.680Z,12.2
2023-03-06T16:42:49.439Z,12.4
2023-03-06T16:44:47.901Z,12.5
2023-03-06T16:46:48.975Z,12.4
2023-03-06T16:48:47.431Z,12.8
2023-03-06T16:50:46.535Z,13.3
2023-03-06T16:52:46.243Z,12.4
2023-03-06T16:54:45.737Z,12.6
2023-03-06T16:56:45.430Z,13.4
2023-03-06T16:58:45.921Z,13.7
2023-03-06T17:00:44.408Z,12.8
2023-03-06T17:02:46.536Z,12.6
2023-03-06T17:04:43.858Z,13.2
2023-03-06T17:06:43.400Z,11.9
2023-03-06T17:08:43.786Z,12.9
2023-03-06T17:10:42.488Z,12.1
2023-03-06T17:12:42.827Z,13.2
2023-03-06T17:14:41.581Z,12.4
2023-03-06T17:16:41.576Z,12.7
2023-03-06T17:18:42.179Z,13.5
2023-03-06T17:20:47.708Z,13.6
2023-03-06T17:22:40.649Z,12.6
2023-03-06T17:24:39.647Z,12.9
2023-03-06T17:26:39.255Z,12.2
2023-03-06T17:28:39.416Z,13.1
2023-03-06T17:32:40.040Z,13.8
2023-03-06T17:34:38.035Z,14.1
2023-03-06T17:36:37.228Z,12.7
2023-03-06T17:38:36.925Z,14.1
2023-03-06T17:40:36.582Z,13.4
2023-03-06T17:42:36.023Z,13.9
2023-03-06T17:44:39.541Z,13.7
2023-03-06T17:46:35.169Z,12.8
2023-03-06T17:48:34.945Z,13.2
2023-03-06T17:50:34.265Z,13.4
2023-03-06T17:52:34.119Z,12.3
2023-03-06T17:54:33.648Z,13.7
2023-03-06T17:56:33.185Z,13.3
2023-03-06T17:58:33.821Z,12.9
2023-03-06T18:00:32.475Z,13.6
2023-03-06T18:02:31.805Z,13.1
2023-03-06T18:04:31.614Z,13.2
2023-03-06T18:06:32.630Z,13.5
2023-03-06T18:08:31.204Z,13.7
2023-03-06T18:10:30.375Z,13.5
2023-03-06T18:12:29.710Z,12.8
2023-03-06T18:14:29.339Z,13.6
2023-03-06T18:16:29.196Z,13.2
2023-03-06T18:18:28.958Z,13.5
2023-03-06T18:20:28.598Z,13.9
2023-03-06T18:22:27.852Z,13.8
2023-03-06T18:24:27.393Z,14.1
2023-03-06T18:30:26.620Z,13.5
2023-03-06T18:32:25.828Z,13.2
2023-03-06T18:36:27.061Z,13.4
2023-03-06T18:38:24.451Z,13.9
2023-03-06T18:40:24.960Z,13.4
2023-03-06T18:42:25.254Z,13.5
2023-03-06T18:44:23.534Z,14.7
2023-03-06T18:46:24.011Z,13.7
2023-03-06T18:48:23.507Z,14.3
2023-03-06T18:50:22.024Z,13.9
2023-03-06T18:52:21.406Z,14.7
2023-03-06T18:54:21.406Z,14.4
2023-03-06T18:56:21.867Z,14.2
2023-03-06T18:58:20.675Z,15.4
2023-03-06T19:00:20.189Z,14.1
2023-03-06T19:02:19.931Z,14.9
2023-03-06T19:04:18.866Z,14.7
2023-03-06T19:06:19.333Z,14.5
2023-03-06T19:08:18.132Z,14.2
2023-03-06T19:10:17.772Z,15.7
2023-03-06T19:12:17.270Z,14.9
2023-03-06T19:14:16.893Z,15.8
2023-03-06T19:16:17.669Z,14.1
2023-03-06T19:18:17.191Z,15.1
2023-03-06T19:20:15.976Z,13.9
2023-03-06T19:24:14.780Z,13.6
2023-03-06T19:26:15.195Z,14.5
2023-03-06T19:28:13.789Z,14.1
2023-03-06T19:30:14.744Z,13.5
2023-03-06T19:32:13.747Z,13.0
2023-03-06T19:34:12.572Z,13.6
2023-03-06T19:36:14.838Z,13.3
2023-03-06T19:38:11.912Z,12.3
2023-03-06T19:40:12.258Z,12.6
2023-03-06T19:42:13.784Z,12.5
2023-03-06T19:44:11.262Z,12.3
2023-03-06T19:46:10.969Z,11.9
2023-03-06T19:48:11.453Z,12.7
2023-03-06T19:50:09.868Z,13.1
2023-03-06T19:52:08.624Z,13.0
2023-03-06T19:54:13.132Z,13.1
2023-03-06T19:56:10.811Z,11.6
2023-03-06T19:58:08.100Z,11.2
2023-03-06T20:00:07.774Z,11.9
2023-03-06T20:02:09.086Z,11.0
2023-03-06T20:04:06.327Z,11.2
2023-03-06T20:06:11.104Z,11.9
2023-03-06T20:08:05.264Z,10.8
2023-03-06T20:12:07.116Z,10.7
2023-03-06T20:14:06.110Z,11.0
2023-03-06T20:16:04.052Z,9.8
2023-03-06T20:18:05.311Z,9.9
2023-03-06T20:20:03.075Z,9.5
2023-03-06T20:22:02.608Z,9.9
2023-03-06T20:24:03.003Z,10.1
2023-03-06T20:26:03.514Z,8.7
2023-03-06T20:28:01.174Z,9.7
2023-03-06T20:30:01.746Z,9.4
2023-03-06T20:32:00.249Z,8.7
2023-03-06T20:33:59.898Z,8.5
2023-03-06T20:35:59.304Z,8.8
2023-03-06T20:37:59.726Z,8.4
2023-03-06T20:39:58.488Z,8.7
2023-03-06T20:41:59.125Z,9.0
2023-03-06T20:43:58.819Z,8.4
2023-03-06T20:45:58.737Z,9.0
2023-03-06T20:47:57.221Z,9.2
2023-03-06T20:49:56.299Z,8.9
2023-03-06T20:51:56.080Z,9.4
2023-03-06T20:53:57.012Z,8.5
2023-03-06T20:55:56.101Z,8.8
2023-03-06T20:57:54.734Z,9.3
2023-03-06T20:59:54.218Z,9.6
2023-03-06T21:01:53.815Z,8.8
2023-03-06T21:03:55.778Z,9.2
2023-03-06T21:05:53.306Z,7.9
2023-03-06T21:07:52.491Z,8.2
2023-03-06T21:09:52.051Z,9.0
2023-03-06T21:11:51.657Z,7.9
2023-03-06T21:13:51.903Z,8.3
2023-03-06T21:15:51.008Z,7.7
2023-03-06T21:17:50.880Z,8.1
2023-03-06T21:19:51.754Z,8.2
2023-03-06T21:21:49.552Z,8.7
2023-03-06T21:23:49.737Z,7.4
2023-03-06T21:25:51.055Z,7.9
2023-03-06T21:27:48.517Z,7.8
2023-03-06T21:29:48.294Z,8.0
2023-03-06T21:31:47.569Z,7.8
2023-03-06T21:35:47.189Z,7.6
2023-03-06T21:39:45.943Z,7.2
2023-03-06T21:41:45.823Z,7.5
2023-03-06T21:43:45.444Z,7.3
2023-03-06T21:45:46.324Z,7.6
2023-03-06T21:47:46.835Z,7.2
2023-03-06T21:51:43.385Z,6.6
2023-03-06T21:53:44.210Z,7.2
2023-03-06T21:55:42.811Z,6.7
2023-03-06T22:01:41.717Z,5.9
2023-03-06T22:03:40.961Z,6.8
2023-03-06T22:05:40.926Z,6.4
2023-03-06T22:07:40.611Z,6.5
2023-03-06T22:09:39.585Z,6.3
2023-03-06T22:11:39.286Z,6.7
2023-03-06T22:13:39.453Z,6.2
2023-03-06T22:15:38.343Z,6.1
2023-03-06T22:17:38.766Z,5.7
2023-03-06T22:19:37.579Z,6.5
2023-03-06T22:21:37.568Z,6.8
2023-03-06T22:23:37.648Z,6.0
2023-03-06T22:25:36.629Z,5.9
2023-03-06T22:27:36.012Z,6.0
2023-03-06T22:29:35.914Z,6.3
2023-03-06T22:31:35.156Z,5.7
2023-03-06T22:35:34.225Z,5.8
2023-03-06T22:39:33.402Z,5.5
2023-03-06T22:41:33.304Z,5.8
2023-03-06T22:43:33.324Z,5.4
2023-03-06T22:45:34.606Z,5.6
2023-03-06T22:49:31.905Z,5.1
2023-03-06T22:51:30.876Z,5.5
2023-03-06T22:53:31.743Z,4.9
2023-03-06T22:55:30.237Z,5.1
2023-03-06T22:57:29.555Z,5.3
2023-03-06T22:59:29.134Z,5.6
2023-03-06T23:03:28.296Z,5.4
2023-03-06T23:05:29.564Z,5.9
2023-03-06T23:07:27.819Z,5.4
2023-03-06T23:09:27.313Z,6.3
2023-03-06T23:11:28.959Z,6.0
2023-03-06T23:15:26.129Z,6.6
2023-03-06T23:17:25.807Z,6.8
2023-03-06T23:19:25.694Z,7.1
2023-03-06T23:21:24.789Z,6.3
2023-03-06T23:23:24.919Z,7.0
2023-03-06T23:25:23.805Z,6.0
2023-03-06T23:27:23.335Z,5.5
2023-03-06T23:29:23.116Z,5.8
2023-03-06T23:31:27.555Z,5.2
2023-03-06T23:33:22.567Z,4.9
2023-03-06T23:35:21.653Z,5.1
2023-03-06T23:37:21.143Z,5.7
2023-03-06T23:39:20.765Z,5.3
2023-03-06T23:41:21.256Z,5.8
2023-03-06T23:43:20.362Z,4.8
2023-03-06T23:45:19.547Z,5.1
2023-03-06T23:47:19.150Z,4.9
2023-03-06T23:51:20.672Z,5.2
2023-03-06T23:53:18.637Z,4.9
2023-03-06T23:55:18.040Z,4.8
2023-03-06T23:57:17.349Z,5.1
2023-03-06T23:59:16.833Z,5.0
